Terminal Aerodrome Forecast
Issued by NWS

Home | Current Version | Previous Version | Text Only | Print | Product List | Glossary On
Versions: 1 2 3 4 5 6 7 8 9 10 11 12 13 14 15 16 17 18 19 20 21 22 23 24 25 26 27 28 29
000
FTUS41 KBOX 041141
TAFFMH
TAF
KFMH 041141Z 0412/0512 24015KT P6SM BKN005 OVC060
     FM041600 24011KT P6SM OVC015
     FM042100 24008KT P6SM OVC025
     FM050000 24006KT 3SM -RASN BR OVC025
     FM050300 26006KT 3SM -SNPL BR OVC010
     FM050400 26005KT 3SM -SN BR OVC010
     FM050600 27005KT 1SM -SN BR OVC008=

USA.gov is the U.S. government's official web portal to all federal, state and local government web resources and services.